< < Back
Terminal Aerodrome Forecast


Current Version              Previous Versions:   1  2  3  4  5  6  7  8  9  

Terminal Aerodrome Forecast

777
FTUS42 KGSP 301241 AAA
TAFCLT
TAF AMD
KCLT 301241Z 3013/3112 22008KT 6SM -RA OVC060
      TEMPO 3013/3015 25008KT P6SM OVC050
     FM301500 26007G17KT P6SM BKN050
     FM301900 30009KT P6SM SCT250
     FM310000 34004KT P6SM FEW250=

Latest METAR

386
SAUS70 KWBC 301356
MTRCLT
METAR KCLT 301352Z 22008KT 10SM FEW015 BKN065 OVC250 06/03 A3009 RMK AO2
RAE09 SLP191 P0000 T00610033


USA.gov is the U.S. government's official web portal to all federal, state and local government web resources and services.